長崎空港の過去48時間の天気

長崎空港 (Nagasaki)

現在時刻: 10/16 15:50 JST (10/16 06:50 UTC) 以下の時間は現地時間です。

過去48時間のMETAR気象情報
時間 風向 風速(m/s) 視程 気温(℃) 湿度(%) 気圧(hPa) 天気現象
16 15:00 北北西 7 10km以上 22 60 1010
16 14:00 北西 3 10km以上 23 41 1011
16 13:00 西 3 10km以上 23 47 1011
16 12:00 南南東 2 10km以上 23 50 1012
16 11:00 南南西 2 10km以上 22 60 1013
16 10:00 西南西 2 10km以上 20 64 1014
16 09:00 不定 1 10km以上 18 77 1014
16 08:00 南東 2 10km以上 17 77 1015
16 07:00 東南東 3 10km以上 16 82 1014
16 06:10 南東 3 10km以上 16 82 1014
15 21:37 北東 3 10km以上 18 68 1016
15 21:00 5 10km以上 18 64 1016
15 20:00 5 10km以上 18 64 1016
15 19:00 北北東 5 10km以上 19 60 1016
15 18:00 5 10km以上 20 56 1016
15 17:00 5 10km以上 22 53 1016
15 16:00 4 10km以上 23 50 1015
15 15:00 4 10km以上 24 47 1016
15 14:00 北西 4 10km以上 24 47 1016
15 13:00 北北西 4 10km以上 24 44 1017
15 12:00 3 10km以上 24 54 1018
15 11:00 西 3 10km以上 22 53 1018
15 10:00 不定 1 10km以上 22 53 1018
15 09:00 南南西 2 10km以上 21 53 1019
15 08:00 東南東 2 10km以上 19 73 1018
15 07:00 南東 3 10km以上 17 83 1018
15 06:10 南南東 3 10km以上 17 83 1018
14 21:00 北東 4 10km以上 20 56 1019
14 20:00 2 10km以上 20 64 1019
14 19:00 北東 3 10km以上 20 56 1018
14 18:00 北北東 4 10km以上 20 64 1018
14 17:00 4 10km以上 21 53 1018
14 16:00 北北東 3 10km以上 22 46 1019
RJFU 160600Z 33014KT 9999 FEW040 BKN130 22/14 Q1010
RJFU 160500Z 32005KT 260V360 9999 FEW040 BKN130 BKN/// 23/09 Q1011
RJFU 160400Z 27006KT 230V300 9999 FEW040 SCT130 BKN/// 23/11 Q1011
RJFU 160300Z 16003KT 9999 FEW040 BKN130 BKN/// 23/12 Q1012
RJFU 160200Z 21004KT 170V240 9999 FEW040 BKN140 BKN/// 22/14 Q1013
RJFU 160100Z 25004KT 190V310 9999 FEW040 SCT/// 20/13 Q1014
RJFU 160000Z VRB01KT CAVOK 18/14 Q1014
RJFU 152300Z 13003KT CAVOK 17/13 Q1015
RJFU 152200Z 11005KT CAVOK 16/13 Q1014
RJFU 152110Z 14005KT CAVOK 16/13 Q1014 RMK A2996
RJFU 151237Z 05006KT 360V090 CAVOK 18/12 Q1016 RMK A3002
RJFU 151200Z 35010KT CAVOK 18/11 Q1016
RJFU 151100Z 35009KT CAVOK 18/11 Q1016
RJFU 151000Z 02009KT CAVOK 19/11 Q1016
RJFU 150900Z 01009KT 9999 FEW050 20/11 Q1016
RJFU 150800Z 36010KT 9999 FEW040 SCT/// 22/12 Q1016
RJFU 150700Z 35008KT 9999 FEW040 BKN/// 23/12 Q1015
RJFU 150600Z 36008KT 9999 FEW040 BKN/// 24/12 Q1016
RJFU 150500Z 31008KT 260V350 9999 FEW040 BKN/// 24/12 Q1016
RJFU 150400Z 33008KT 9999 FEW040 BKN/// 24/11 Q1017
RJFU 150300Z 35005KT 300V360 9999 FEW035 BKN/// 24/14 Q1018
RJFU 150200Z 28006KT 240V300 9999 FEW030 BKN/// 22/12 Q1018
RJFU 150100Z VRB02KT 9999 FEW030 BKN/// 22/12 Q1018
RJFU 150000Z 21003KT 140V260 CAVOK 21/11 Q1019
RJFU 142300Z 11004KT 080V150 CAVOK 19/14 Q1018
RJFU 142200Z 14005KT CAVOK 17/14 Q1018
RJFU 142110Z 15005KT CAVOK 17/14 Q1018 RMK A3008
RJFU 141200Z 04007KT CAVOK 20/11 Q1019
RJFU 141100Z 19004KT CAVOK 20/13 Q1019
RJFU 141000Z 05005KT CAVOK 20/11 Q1018
RJFU 140900Z 03007KT 360V060 CAVOK 20/13 Q1018
RJFU 140800Z 01007KT CAVOK 21/11 Q1018
RJFU 140700Z 02006KT CAVOK 22/10 Q1019